Time;durP1;ratioP1;P1;durP2;ratioP2;P2;SDS_P1;SDS_P2;PMS_P1;PMS_P2;Temp;Humidity;BMP_temperature;BMP_pressure;BME280_temperature;BME280_humidity;BME280_pressure;Samples;Min_cycle;Max_cycle;Signal;HPM_P1;HPM_P2
2023/01/14 00:01:21;;;;;;;0.20;0.20;;;10.70;71.60;;;;;;4892881;29;20009;-90
2023/01/14 00:03:47;;;;;;;0.30;0.30;;;11.00;72.00;;;;;;4894942;29;20119;-94
2023/01/14 00:06:15;;;;;;;0.30;0.30;;;11.80;69.00;;;;;;4890883;29;20023;-89
2023/01/14 00:08:41;;;;;;;0.30;0.30;;;12.40;67.60;;;;;;4891792;29;20088;-89
2023/01/14 00:11:09;;;;;;;0.20;0.20;;;12.80;66.60;;;;;;4891165;29;20028;-96
2023/01/14 00:13:36;;;;;;;0.40;0.40;;;13.20;64.80;;;;;;4895450;29;20025;-94
2023/01/14 00:16:03;;;;;;;0.20;0.20;;;13.50;63.60;;;;;;4892035;29;20008;-89
2023/01/14 00:18:31;;;;;;;0.20;0.20;;;13.70;62.40;;;;;;4894672;29;20048;-95
2023/01/14 00:21:14;;;;;;;0.30;0.30;;;13.60;62.40;;;;;;4891719;29;20024;-89
2023/01/14 00:23:40;;;;;;;0.20;0.20;;;13.50;62.40;;;;;;4893334;29;20029;-88
2023/01/14 00:26:13;;;;;;;0.30;0.30;;;13.20;62.60;;;;;;4892550;29;20033;-94
2023/01/14 00:28:39;;;;;;;0.28;0.28;;;13.10;64.10;;;;;;4894380;29;20084;-89
2023/01/14 00:31:10;;;;;;;0.30;0.30;;;13.30;63.50;;;;;;4896011;29;20020;-90
2023/01/14 00:34:03;;;;;;;0.30;0.30;;;13.50;63.40;;;;;;4913788;29;20043;-90
2023/01/14 00:36:29;;;;;;;0.20;0.20;;;13.70;62.50;;;;;;4897174;29;20039;-89
2023/01/14 00:38:55;;;;;;;0.25;0.25;;;14.00;61.50;;;;;;4891770;29;20040;-96
2023/01/14 00:41:25;;;;;;;0.30;0.30;;;14.00;61.80;;;;;;4889282;29;20024;-95
2023/01/14 00:43:55;;;;;;;;;;;13.80;61.70;;;;;;4875856;29;20037;-93
2023/01/14 00:46:26;;;;;;;0.20;0.20;;;13.60;62.20;;;;;;4880881;29;20350;-93
2023/01/14 00:48:52;;;;;;;0.30;0.30;;;13.60;62.80;;;;;;4864895;29;20033;-90
2023/01/14 00:51:19;;;;;;;0.38;0.38;;;13.80;62.00;;;;;;4866031;29;20029;-95
2023/01/14 00:53:45;;;;;;;0.25;0.25;;;13.60;62.10;;;;;;4898796;29;20068;-90
2023/01/14 00:56:13;;;;;;;0.32;0.32;;;13.40;62.00;;;;;;4903346;29;20028;-89
2023/01/14 00:58:39;;;;;;;0.40;0.40;;;13.50;62.20;;;;;;4905748;29;20037;-96
2023/01/14 01:01:06;;;;;;;0.28;0.28;;;13.60;61.80;;;;;;4903502;29;20068;-95
2023/01/14 01:03:36;;;;;;;0.30;0.30;;;13.70;61.50;;;;;;4890582;29;20021;-90
2023/01/14 01:06:02;;;;;;;;;;;13.90;61.30;;;;;;4890638;29;20032;-89
2023/01/14 01:08:27;;;;;;;0.25;0.25;;;14.00;61.10;;;;;;4889135;29;19911;-92
2023/01/14 01:10:54;;;;;;;0.30;0.30;;;14.10;60.70;;;;;;4890559;29;20037;-96
2023/01/14 01:13:22;;;;;;;0.30;0.30;;;14.00;61.10;;;;;;4888597;29;20120;-90
2023/01/14 01:15:49;;;;;;;0.20;0.20;;;13.50;62.70;;;;;;4888171;29;20028;-96
2023/01/14 01:18:15;;;;;;;0.20;0.20;;;13.40;63.30;;;;;;4887710;29;20040;-95
2023/01/14 01:20:42;;;;;;;0.20;0.20;;;13.60;62.60;;;;;;4891565;29;20084;-91
2023/01/14 01:23:10;;;;;;;0.20;0.20;;;13.80;61.80;;;;;;4895666;29;20080;-91
2023/01/14 01:25:36;;;;;;;0.38;0.38;;;13.90;62.00;;;;;;4891325;29;20028;-90
2023/01/14 01:28:02;;;;;;;0.28;0.28;;;13.90;62.20;;;;;;4895221;29;20081;-90
2023/01/14 01:30:44;;;;;;;0.20;0.20;;;13.90;61.60;;;;;;4891832;29;20492;-90
2023/01/14 01:33:10;;;;;;;0.30;0.30;;;14.00;61.20;;;;;;4894093;29;20092;-89
2023/01/14 01:35:36;;;;;;;0.20;0.20;;;13.90;61.80;;;;;;4892755;29;20013;-90
2023/01/14 01:38:02;;;;;;;0.20;0.20;;;13.90;61.20;;;;;;4894276;29;20060;-91
2023/01/14 01:40:30;;;;;;;0.20;0.20;;;14.00;61.20;;;;;;4894324;29;20083;-94
2023/01/14 01:42:56;;;;;;;0.30;0.30;;;14.10;61.20;;;;;;4899631;29;20076;-92
2023/01/14 01:45:31;;;;;;;0.30;0.30;;;14.20;61.20;;;;;;4897663;29;20392;-90
2023/01/14 01:48:05;;;;;;;0.20;0.20;;;14.40;60.90;;;;;;4895217;29;20043;-93
2023/01/14 01:50:32;;;;;;;0.20;0.20;;;14.40;60.40;;;;;;4893059;29;20024;-90
2023/01/14 01:52:58;;;;;;;0.30;0.30;;;14.30;60.80;;;;;;4890548;29;20028;-90
2023/01/14 01:55:24;;;;;;;0.25;0.25;;;14.40;60.70;;;;;;4888344;29;20169;-90
2023/01/14 01:57:55;;;;;;;0.20;0.20;;;14.40;60.80;;;;;;4890099;29;20168;-90
2023/01/14 02:00:25;;;;;;;0.30;0.30;;;14.30;60.50;;;;;;4888191;29;20100;-90
2023/01/14 02:03:00;;;;;;;0.32;0.32;;;14.30;60.60;;;;;;4892084;29;20128;-93
2023/01/14 02:05:26;;;;;;;0.30;0.30;;;14.10;61.10;;;;;;4894689;29;20040;-89
2023/01/14 02:07:52;;;;;;;0.30;0.30;;;14.00;61.80;;;;;;4893337;29;20127;-89
2023/01/14 02:10:19;;;;;;;0.30;0.30;;;14.10;61.10;;;;;;4888085;29;20045;-90
2023/01/14 02:13:12;;;;;;;0.20;0.20;;;14.20;61.10;;;;;;4892383;29;20032;-96
2023/01/14 02:15:43;;;;;;;0.28;0.28;;;14.30;60.80;;;;;;4888573;29;20052;-93
2023/01/14 02:18:28;;;;;;;0.30;0.30;;;14.30;60.90;;;;;;4883697;29;20069;-89
2023/01/14 02:21:05;;;;;;;0.20;0.20;;;14.30;60.90;;;;;;4877630;29;20032;-96
2023/01/14 02:23:39;;;;;;;0.40;0.40;;;14.00;61.60;;;;;;4886396;29;20021;-89
2023/01/14 02:26:26;;;;;;;0.28;0.28;;;14.10;61.70;;;;;;4887820;29;20028;-96
2023/01/14 02:29:28;;;;;;;0.35;0.35;;;14.20;61.00;;;;;;4874647;29;20077;-88
2023/01/14 02:32:06;;;;;;;0.50;0.50;;;13.80;61.50;;;;;;4872100;29;20025;-89
2023/01/14 02:34:50;;;;;;;0.50;0.50;;;13.60;62.30;;;;;;4887768;29;20037;-90
2023/01/14 02:37:34;;;;;;;0.50;0.50;;;13.80;61.70;;;;;;4904541;29;20028;-96
2023/01/14 02:40:20;;;;;;;0.40;0.40;;;13.80;61.50;;;;;;4908444;29;20040;-90
2023/01/14 02:46:46;;;;;;;0.35;0.35;;;13.50;62.60;;;;;;4835467;29;20056;-90
2023/01/14 02:49:18;;;;;;;0.43;0.43;;;13.50;63.30;;;;;;4836013;29;20067;-89
2023/01/14 02:51:46;;;;;;;0.40;0.40;;;13.50;62.80;;;;;;4833901;29;20159;-89
2023/01/14 02:54:11;;;;;;;0.50;0.50;;;13.70;62.00;;;;;;4834068;29;20131;-89
2023/01/14 02:56:38;;;;;;;0.65;0.65;;;13.30;63.30;;;;;;4813277;29;20046;-91
2023/01/14 02:59:33;;;;;;;0.55;0.55;;;13.10;63.10;;;;;;4821574;29;20034;-94
2023/01/14 03:02:34;;;;;;;0.40;0.40;;;13.10;63.50;;;;;;4819044;29;20202;-90
2023/01/14 03:05:24;;;;;;;0.50;0.50;;;13.00;63.70;;;;;;4757747;30;20063;-89
2023/01/14 03:07:53;;;;;;;1.10;0.80;;;12.90;64.20;;;;;;4761819;29;20050;-95
2023/01/14 03:10:39;;;;;;;0.57;0.57;;;13.20;62.90;;;;;;4760497;30;20071;-88
2023/01/14 03:13:15;;;;;;;0.60;0.60;;;13.50;63.10;;;;;;4761148;30;20040;-88
2023/01/14 03:15:43;;;;;;;0.50;0.50;;;13.70;62.10;;;;;;4775076;30;20050;-88
2023/01/14 03:18:40;;;;;;;0.63;0.60;;;13.60;61.90;;;;;;4764831;30;20176;-90
2023/01/14 03:21:12;;;;;;;0.52;0.50;;;13.60;62.20;;;;;;4765817;29;20058;-95
2023/01/14 03:23:47;;;;;;;0.77;0.77;;;13.80;61.40;;;;;;4815339;29;20034;-96
2023/01/14 03:26:17;;;;;;;0.63;0.63;;;13.70;61.30;;;;;;4821056;29;20034;-96
2023/01/14 03:28:49;;;;;;;0.37;0.37;;;13.70;61.70;;;;;;4818745;29;20030;-88
2023/01/14 03:31:20;;;;;;;0.30;0.30;;;13.60;61.60;;;;;;4820315;29;20066;-94
2023/01/14 03:34:01;;;;;;;0.60;0.60;;;13.40;62.20;;;;;;4835846;29;20052;-94
2023/01/14 03:36:32;;;;;;;0.47;0.47;;;13.20;62.10;;;;;;4833721;29;20026;-88
2023/01/14 03:38:59;;;;;;;;;;;13.30;61.70;;;;;;4850367;29;20527;-90
2023/01/14 03:44:18;;;;;;;0.30;0.30;;;13.50;61.90;;;;;;4907858;29;20084;-87
2023/01/14 03:46:44;;;;;;;0.30;0.30;;;13.50;61.40;;;;;;4868830;29;20032;-89
2023/01/14 03:49:10;;;;;;;0.40;0.40;;;13.50;61.80;;;;;;4871375;29;20123;-89
2023/01/14 03:51:58;;;;;;;0.38;0.38;;;13.60;61.40;;;;;;4867017;29;20107;-90
2023/01/14 03:54:30;;;;;;;0.47;0.47;;;13.70;60.90;;;;;;4851634;29;20101;-92
2023/01/14 03:57:21;;;;;;;0.32;0.32;;;13.70;61.30;;;;;;4866364;29;20120;-88
2023/01/14 04:00:20;;;;;;;0.50;0.50;;;13.80;61.10;;;;;;4887100;29;20044;-89
2023/01/14 04:02:47;;;;;;;0.30;0.30;;;13.70;60.90;;;;;;4887407;29;20021;-89
2023/01/14 04:05:13;;;;;;;0.40;0.40;;;13.60;60.90;;;;;;4889338;29;20037;-89
2023/01/14 04:07:39;;;;;;;0.20;0.20;;;13.40;61.40;;;;;;4889209;29;20040;-89
2023/01/14 04:10:05;;;;;;;0.30;0.30;;;13.50;61.20;;;;;;4887541;29;20044;-89
2023/01/14 04:12:31;;;;;;;0.30;0.30;;;13.60;61.00;;;;;;4891675;29;20035;-90
2023/01/14 04:17:41;;;;;;;0.35;0.35;;;13.80;61.30;;;;;;4902536;29;20118;-90
2023/01/14 04:20:07;;;;;;;0.30;0.30;;;13.50;61.60;;;;;;4885088;29;20024;-90
2023/01/14 04:22:33;;;;;;;0.43;0.43;;;13.50;61.30;;;;;;4886919;29;20480;-92
2023/01/14 04:24:59;;;;;;;0.40;0.40;;;13.50;61.20;;;;;;4885930;29;20088;-89
2023/01/14 04:27:24;;;;;;;0.50;0.50;;;13.50;61.30;;;;;;4886261;29;20032;-90
2023/01/14 04:29:50;;;;;;;0.40;0.40;;;13.60;61.10;;;;;;4885804;29;20480;-87
2023/01/14 04:32:16;;;;;;;0.50;0.50;;;13.60;61.20;;;;;;4886426;29;20032;-88
2023/01/14 04:34:41;;;;;;;0.30;0.30;;;13.70;60.60;;;;;;4887482;29;20047;-89
2023/01/14 04:37:07;;;;;;;0.60;0.60;;;13.70;60.60;;;;;;4886108;29;20096;-96
2023/01/14 04:39:34;;;;;;;0.40;0.40;;;13.50;61.10;;;;;;4885475;29;20051;-89
2023/01/14 04:44:46;;;;;;;0.50;0.50;;;13.50;61.50;;;;;;4905205;29;20056;-88
2023/01/14 04:47:12;;;;;;;0.47;0.47;;;13.30;62.10;;;;;;4886263;29;20092;-91
2023/01/14 04:49:38;;;;;;;0.60;0.60;;;13.30;61.50;;;;;;4882698;29;20021;-92
2023/01/14 04:52:04;;;;;;;0.57;0.57;;;13.40;62.10;;;;;;4868606;29;20018;-90
2023/01/14 04:54:29;;;;;;;0.40;0.40;;;13.20;61.80;;;;;;4867773;29;20041;-90
2023/01/14 04:56:55;;;;;;;0.50;0.50;;;13.30;61.30;;;;;;4874424;29;20009;-89
2023/01/14 04:59:21;;;;;;;0.40;0.40;;;13.30;61.50;;;;;;4870741;29;20033;-89
2023/01/14 05:01:55;;;;;;;0.40;0.40;;;13.20;61.60;;;;;;4874500;29;20467;-91
2023/01/14 05:04:21;;;;;;;0.43;0.40;;;13.00;62.20;;;;;;4872984;29;20016;-90
2023/01/14 05:06:46;;;;;;;0.40;0.40;;;12.80;62.10;;;;;;4877654;29;20380;-96
2023/01/14 05:09:15;;;;;;;0.30;0.30;;;12.80;61.80;;;;;;4887201;29;20036;-89
2023/01/14 05:11:41;;;;;;;0.40;0.40;;;12.80;62.00;;;;;;4887804;29;20005;-89
2023/01/14 05:14:06;;;;;;;0.30;0.30;;;12.60;62.50;;;;;;4887429;29;20045;-89
2023/01/14 05:16:32;;;;;;;0.28;0.28;;;12.40;62.70;;;;;;4881656;29;20063;-89
2023/01/14 05:18:58;;;;;;;0.30;0.30;;;12.20;63.20;;;;;;4882259;29;20381;-89
2023/01/14 05:21:24;;;;;;;0.30;0.30;;;12.10;63.60;;;;;;4882020;29;20048;-88
2023/01/14 05:23:50;;;;;;;0.30;0.30;;;12.10;63.50;;;;;;4887137;29;20108;-88
2023/01/14 05:26:16;;;;;;;0.20;0.20;;;12.30;63.10;;;;;;4878046;29;20027;-88
2023/01/14 05:28:42;;;;;;;0.30;0.30;;;12.30;62.70;;;;;;4866783;29;20480;-88
2023/01/14 05:31:08;;;;;;;0.43;0.43;;;11.80;64.70;;;;;;4865544;29;20025;-88
2023/01/14 05:33:34;;;;;;;0.40;0.40;;;11.70;64.50;;;;;;4865435;29;20037;-96
2023/01/14 05:36:00;;;;;;;0.45;0.45;;;11.70;64.80;;;;;;4882133;29;20084;-89
2023/01/14 05:38:27;;;;;;;0.40;0.40;;;11.90;64.20;;;;;;4884647;29;20032;-88
2023/01/14 05:40:53;;;;;;;0.20;0.20;;;12.00;63.50;;;;;;4887634;29;20053;-87
2023/01/14 05:46:07;;;;;;;0.30;0.30;;;11.90;63.60;;;;;;4902646;29;20072;-89
2023/01/14 05:48:35;;;;;;;0.30;0.30;;;11.90;63.90;;;;;;4886556;29;20494;-89
2023/01/14 05:51:02;;;;;;;0.30;0.30;;;11.70;63.60;;;;;;4887641;29;20043;-89
2023/01/14 05:53:28;;;;;;;0.30;0.30;;;11.50;63.90;;;;;;4888750;29;20016;-88
2023/01/14 05:55:56;;;;;;;0.25;0.25;;;11.40;64.20;;;;;;4885184;29;20440;-88
2023/01/14 05:58:22;;;;;;;0.20;0.20;;;11.30;64.60;;;;;;4886714;29;20084;-88
2023/01/14 06:06:24;;;;;;;0.20;0.20;;;11.30;64.90;;;;;;4901685;29;20035;-94
2023/01/14 06:09:03;;;;;;;0.30;0.30;;;11.10;64.80;;;;;;4893057;29;20037;-91
2023/01/14 06:11:32;;;;;;;0.20;0.20;;;11.00;64.90;;;;;;4890206;29;20036;-90
2023/01/14 06:13:58;;;;;;;0.32;0.32;;;10.90;64.90;;;;;;4888085;29;20033;-89
2023/01/14 06:16:27;;;;;;;0.30;0.30;;;10.70;65.90;;;;;;4886256;29;20064;-89
2023/01/14 06:18:53;;;;;;;0.40;0.40;;;10.70;66.00;;;;;;4886969;29;20488;-88
2023/01/14 06:21:22;;;;;;;0.43;0.43;;;10.70;65.50;;;;;;4886382;29;20056;-88
2023/01/14 06:23:48;;;;;;;0.40;0.40;;;10.40;66.50;;;;;;4884531;29;20033;-89
2023/01/14 06:26:17;;;;;;;0.50;0.50;;;10.20;67.70;;;;;;4885341;29;20437;-89
2023/01/14 06:28:42;;;;;;;0.40;0.40;;;10.10;67.70;;;;;;4889504;29;20059;-91
2023/01/14 06:31:18;;;;;;;0.43;0.43;;;10.10;67.70;;;;;;4890185;29;20408;-88
2023/01/14 06:33:45;;;;;;;0.30;0.30;;;10.40;67.00;;;;;;4886919;29;20374;-90
2023/01/14 06:36:13;;;;;;;0.30;0.30;;;10.70;66.30;;;;;;4887042;29;20112;-87
2023/01/14 06:38:39;;;;;;;0.30;0.30;;;10.90;65.40;;;;;;4887167;29;20071;-93
2023/01/14 06:41:07;;;;;;;0.40;0.40;;;11.20;64.70;;;;;;4889554;29;20462;-87
2023/01/14 06:43:34;;;;;;;0.30;0.30;;;11.30;64.00;;;;;;4890628;29;20036;-93
2023/01/14 06:46:00;;;;;;;0.40;0.40;;;11.40;63.10;;;;;;4892442;29;20047;-91
2023/01/14 06:48:27;;;;;;;0.30;0.30;;;11.20;64.20;;;;;;4907224;29;20476;-93
2023/01/14 06:50:53;;;;;;;0.45;0.45;;;11.10;64.70;;;;;;4884962;29;20068;-87
2023/01/14 06:53:19;;;;;;;0.38;0.38;;;11.00;65.10;;;;;;4887660;29;20040;-88
2023/01/14 06:55:45;;;;;;;0.40;0.40;;;11.00;64.70;;;;;;4888578;29;20059;-90
2023/01/14 06:58:11;;;;;;;0.30;0.30;;;10.90;65.00;;;;;;4861833;29;20033;-89
2023/01/14 07:00:38;;;;;;;0.35;0.35;;;10.90;64.90;;;;;;4892152;29;20057;-88
2023/01/14 07:03:06;;;;;;;0.30;0.30;;;10.80;65.60;;;;;;4891659;29;20033;-91
2023/01/14 07:05:31;;;;;;;0.30;0.30;;;10.70;65.50;;;;;;4889584;29;20031;-87
2023/01/14 07:08:02;;;;;;;0.30;0.30;;;10.80;65.90;;;;;;4889151;29;20096;-87
2023/01/14 07:10:29;;;;;;;0.32;0.32;;;11.00;64.90;;;;;;4890348;29;20036;-88
2023/01/14 07:12:57;;;;;;;0.30;0.30;;;10.80;65.40;;;;;;4888706;29;20040;-88
2023/01/14 07:15:25;;;;;;;0.28;0.28;;;10.90;65.70;;;;;;4892721;29;20037;-89
2023/01/14 07:18:03;;;;;;;0.40;0.40;;;10.90;65.20;;;;;;4910801;29;20032;-90
2023/01/14 07:20:49;;;;;;;0.30;0.30;;;11.00;65.60;;;;;;4908917;29;20033;-91
2023/01/14 07:23:15;;;;;;;0.32;0.32;;;11.00;65.30;;;;;;4912510;29;20076;-89
2023/01/14 07:25:40;;;;;;;0.38;0.38;;;11.10;65.40;;;;;;4889264;29;20032;-88
2023/01/14 07:28:06;;;;;;;0.35;0.35;;;11.40;64.90;;;;;;4893757;29;20025;-88
2023/01/14 07:30:32;;;;;;;0.32;0.32;;;11.40;63.60;;;;;;4903769;29;20107;-88
2023/01/14 07:33:00;;;;;;;0.30;0.30;;;11.40;64.40;;;;;;4893646;29;20052;-92
2023/01/14 07:35:51;;;;;;;0.30;0.30;;;11.40;64.30;;;;;;4897414;29;20039;-96
2023/01/14 07:38:19;;;;;;;0.20;0.20;;;11.30;65.30;;;;;;4890546;29;20024;-89
2023/01/14 07:40:45;;;;;;;0.40;0.40;;;11.30;64.90;;;;;;4889331;29;20063;-88
2023/01/14 07:43:15;;;;;;;0.30;0.30;;;11.20;66.00;;;;;;4894271;29;20017;-87
2023/01/14 07:45:45;;;;;;;0.30;0.30;;;11.30;65.10;;;;;;4886854;29;20060;-90
2023/01/14 07:48:11;;;;;;;0.25;0.25;;;11.00;66.00;;;;;;4886663;29;20035;-93
2023/01/14 07:50:37;;;;;;;0.20;0.20;;;11.00;66.70;;;;;;4885734;29;20032;-95
2023/01/14 07:53:03;;;;;;;0.30;0.30;;;11.30;66.10;;;;;;4882383;29;20036;-86
2023/01/14 07:55:28;;;;;;;0.30;0.30;;;11.40;65.50;;;;;;4885991;29;20492;-91
2023/01/14 07:57:55;;;;;;;0.30;0.30;;;11.60;64.90;;;;;;4890588;29;20045;-94
2023/01/14 08:00:23;;;;;;;0.22;0.22;;;11.60;65.70;;;;;;4887599;29;20032;-94
2023/01/14 08:02:49;;;;;;;0.30;0.30;;;11.70;65.80;;;;;;4889580;29;20024;-96
2023/01/14 08:05:15;;;;;;;0.30;0.30;;;11.90;65.80;;;;;;4887007;29;20041;-88
2023/01/14 08:07:41;;;;;;;0.30;0.30;;;12.10;65.70;;;;;;4889226;29;20025;-86
2023/01/14 08:10:08;;;;;;;0.30;0.30;;;12.20;64.80;;;;;;4892814;29;20048;-87
2023/01/14 08:12:34;;;;;;;0.20;0.20;;;12.30;65.20;;;;;;4889344;29;20392;-85
2023/01/14 08:15:01;;;;;;;0.30;0.30;;;12.50;65.00;;;;;;4887197;29;20052;-86
2023/01/14 08:17:27;;;;;;;0.20;0.20;;;12.60;64.70;;;;;;4888709;29;20069;-87
2023/01/14 08:19:53;;;;;;;0.22;0.22;;;12.80;64.10;;;;;;4874768;29;20043;-88
2023/01/14 08:22:19;;;;;;;0.40;0.40;;;12.80;64.10;;;;;;4887770;29;20112;-89
2023/01/14 08:24:44;;;;;;;0.30;0.30;;;13.00;64.20;;;;;;4876954;29;20059;-95
2023/01/14 08:27:11;;;;;;;0.20;0.20;;;13.30;63.20;;;;;;4889282;29;20020;-88
2023/01/14 08:29:37;;;;;;;0.20;0.20;;;13.60;62.50;;;;;;4885010;29;20032;-88
2023/01/14 08:32:03;;;;;;;0.30;0.30;;;13.50;62.00;;;;;;4884816;29;20029;-88
2023/01/14 08:34:29;;;;;;;0.25;0.25;;;13.50;62.10;;;;;;4885497;29;20045;-87
2023/01/14 08:36:58;;;;;;;0.30;0.30;;;13.50;62.10;;;;;;4886190;29;20036;-91
2023/01/14 08:39:23;;;;;;;0.20;0.20;;;13.20;62.80;;;;;;4888258;29;20032;-84
2023/01/14 08:41:49;;;;;;;0.20;0.20;;;13.20;63.10;;;;;;4883260;29;20073;-84
2023/01/14 08:44:15;;;;;;;0.20;0.20;;;13.30;62.50;;;;;;4887059;29;20023;-87
2023/01/14 08:46:42;;;;;;;0.30;0.30;;;13.20;63.20;;;;;;4895678;29;20036;-93
2023/01/14 08:49:12;;;;;;;0.40;0.40;;;13.40;62.00;;;;;;4911839;29;20093;-87
2023/01/14 08:51:38;;;;;;;0.40;0.40;;;13.50;62.40;;;;;;4887993;29;20437;-88
2023/01/14 08:54:05;;;;;;;0.40;0.40;;;14.10;61.40;;;;;;4889195;29;20048;-95
2023/01/14 08:56:31;;;;;;;0.30;0.30;;;15.10;60.10;;;;;;4891614;29;20040;-86
2023/01/14 08:58:56;;;;;;;0.20;0.20;;;16.50;57.20;;;;;;4888785;29;20083;-86
2023/01/14 09:01:22;;;;;;;0.30;0.30;;;17.10;56.80;;;;;;4880519;29;20029;-87
2023/01/14 09:03:48;;;;;;;0.32;0.32;;;18.20;54.80;;;;;;4866989;29;20037;-92
2023/01/14 09:06:16;;;;;;;0.40;0.40;;;18.50;53.40;;;;;;4872485;29;20101;-89
2023/01/14 09:17:08;;;;;;;0.30;0.30;;;19.60;52.40;;;;;;4903528;29;20479;-88
2023/01/14 09:19:35;;;;;;;0.40;0.40;;;19.80;52.10;;;;;;4893140;29;20033;-88
2023/01/14 09:22:27;;;;;;;0.30;0.30;;;20.60;50.50;;;;;;4921000;29;20041;-91
2023/01/14 09:24:53;;;;;;;;;;;21.70;49.90;;;;;;4898833;29;20028;-89
2023/01/14 09:27:19;;;;;;;0.40;0.40;;;22.30;48.70;;;;;;4900114;29;19918;-94
2023/01/14 09:29:45;;;;;;;0.30;0.30;;;22.80;48.00;;;;;;4891297;29;20039;-93
2023/01/14 09:32:13;;;;;;;0.30;0.30;;;23.00;47.80;;;;;;4896353;29;20029;-96
2023/01/14 09:34:41;;;;;;;0.30;0.30;;;23.40;47.70;;;;;;4891691;29;20036;-93
2023/01/14 09:37:12;;;;;;;0.40;0.40;;;23.60;46.40;;;;;;4897871;29;20392;-91
2023/01/14 09:39:37;;;;;;;0.40;0.40;;;23.60;47.20;;;;;;4887648;29;20580;-95
2023/01/14 09:42:12;;;;;;;0.30;0.30;;;24.20;46.20;;;;;;4902657;29;20536;-93
2023/01/14 09:44:41;;;;;;;0.40;0.40;;;24.20;46.40;;;;;;4886097;29;20088;-95
2023/01/14 09:47:13;;;;;;;0.40;0.40;;;24.20;45.70;;;;;;4870079;29;20450;-94
2023/01/14 09:49:40;;;;;;;0.35;0.35;;;23.90;46.50;;;;;;4885637;29;20061;-93
2023/01/14 09:52:38;;;;;;;0.38;0.38;;;23.70;46.50;;;;;;4886406;29;20389;-95
2023/01/14 09:55:14;;;;;;;0.30;0.30;;;23.30;46.50;;;;;;4890313;29;20595;-93
2023/01/14 09:57:54;;;;;;;0.40;0.40;;;24.00;46.40;;;;;;4886238;29;20433;-94
2023/01/14 10:00:29;;;;;;;0.30;0.30;;;24.70;45.20;;;;;;4883652;29;20042;-88
2023/01/14 10:03:25;;;;;;;0.52;0.52;;;24.90;45.30;;;;;;4897054;29;20032;-93
2023/01/14 10:06:03;;;;;;;0.35;0.35;;;24.60;45.30;;;;;;4887239;29;20039;-91
2023/01/14 10:08:37;;;;;;;0.30;0.30;;;24.70;45.60;;;;;;4886420;29;20029;-88
2023/01/14 10:11:06;;;;;;;0.40;0.40;;;25.10;45.60;;;;;;4886080;29;20111;-92
2023/01/14 10:14:14;;;;;;;0.20;0.20;;;26.20;44.90;;;;;;4879539;29;20033;-88
2023/01/14 10:16:42;;;;;;;0.35;0.35;;;27.10;44.00;;;;;;4878863;29;20035;-88
2023/01/14 10:19:11;;;;;;;0.30;0.30;;;26.60;43.90;;;;;;4903842;29;20090;-93
2023/01/14 10:21:59;;;;;;;0.40;0.40;;;26.80;43.60;;;;;;4900447;29;20115;-95
2023/01/14 10:24:24;;;;;;;0.38;0.38;;;27.10;44.00;;;;;;4901854;29;20040;-86
2023/01/14 10:26:51;;;;;;;0.30;0.30;;;27.40;43.30;;;;;;4891350;29;20033;-88
2023/01/14 10:29:21;;;;;;;0.40;0.40;;;27.80;43.10;;;;;;4884877;29;20032;-87
2023/01/14 10:31:59;;;;;;;0.30;0.30;;;27.90;42.80;;;;;;4885343;29;20029;-91
2023/01/14 10:34:40;;;;;;;0.25;0.25;;;28.20;42.80;;;;;;4884754;29;20040;-96
2023/01/14 10:37:06;;;;;;;0.30;0.30;;;28.50;42.80;;;;;;4892793;29;20025;-96
2023/01/14 10:39:32;;;;;;;0.20;0.20;;;28.50;42.40;;;;;;4881802;29;20043;-95
2023/01/14 10:42:00;;;;;;;0.30;0.30;;;27.80;42.80;;;;;;4894747;29;20032;-93
2023/01/14 10:44:39;;;;;;;0.30;0.30;;;27.70;43.10;;;;;;4879036;29;20032;-96
2023/01/14 10:47:09;;;;;;;0.40;0.40;;;27.10;43.60;;;;;;4894656;29;20037;-95
2023/01/14 10:49:40;;;;;;;0.38;0.38;;;26.60;43.60;;;;;;4875856;29;20029;-96
2023/01/14 10:52:22;;;;;;;0.40;0.40;;;25.30;43.70;;;;;;4901885;29;20053;-85
2023/01/14 10:55:14;;;;;;;0.25;0.25;;;24.50;45.20;;;;;;4882739;29;20048;-86
2023/01/14 10:58:06;;;;;;;0.40;0.40;;;23.50;45.70;;;;;;4899120;29;20019;-94
2023/01/14 11:00:40;;;;;;;0.40;0.40;;;22.90;47.20;;;;;;4878023;29;20085;-90
2023/01/14 11:03:34;;;;;;;0.38;0.38;;;22.70;47.50;;;;;;4887370;29;20028;-84
2023/01/14 11:06:21;;;;;;;0.40;0.40;;;22.50;47.30;;;;;;4886257;29;20029;-85
2023/01/14 11:08:47;;;;;;;0.20;0.20;;;22.00;48.10;;;;;;4895125;29;20036;-94
2023/01/14 11:11:19;;;;;;;0.22;0.22;;;22.00;48.00;;;;;;4901565;29;20052;-93
2023/01/14 11:13:50;;;;;;;0.40;0.40;;;21.60;48.00;;;;;;4892875;29;20069;-92
2023/01/14 11:16:25;;;;;;;0.30;0.30;;;21.70;48.60;;;;;;4887066;29;20047;-94
2023/01/14 11:19:15;;;;;;;0.20;0.20;;;21.00;48.70;;;;;;4888791;29;20024;-89
2023/01/14 11:21:51;;;;;;;;;;;20.50;49.50;;;;;;4905318;29;20120;-96
2023/01/14 11:24:45;;;;;;;0.30;0.30;;;20.20;50.50;;;;;;4910106;29;19935;-96
2023/01/14 11:27:20;;;;;;;0.30;0.30;;;19.90;50.60;;;;;;4910682;29;20059;-94
2023/01/14 11:29:59;;;;;;;0.38;0.38;;;19.50;51.30;;;;;;4911976;29;20080;-95
2023/01/14 11:32:33;;;;;;;0.28;0.28;;;19.20;51.90;;;;;;4877433;29;20088;-95
2023/01/14 11:35:06;;;;;;;0.40;0.40;;;18.80;52.70;;;;;;4871837;29;20080;-95
2023/01/14 11:37:49;;;;;;;0.47;0.47;;;18.20;53.60;;;;;;4889915;29;20064;-94
2023/01/14 11:41:28;;;;;;;0.38;0.38;;;17.40;54.40;;;;;;4885579;29;20413;-89
2023/01/14 11:43:13;;;;;;;0.40;0.40;;;16.90;55.40;;;;;;4904326;29;20388;-95
2023/01/14 11:45:38;;;;;;;0.40;0.40;;;16.90;56.30;;;;;;4871724;29;20748;-96
2023/01/14 11:48:27;;;;;;;0.30;0.30;;;17.00;56.30;;;;;;4886103;29;20033;-88
2023/01/14 11:51:02;;;;;;;0.40;0.40;;;17.10;56.10;;;;;;4887182;29;20393;-92
2023/01/14 11:53:48;;;;;;;0.38;0.38;;;17.10;55.40;;;;;;4897105;29;20039;-93
2023/01/14 11:56:31;;;;;;;0.40;0.40;;;16.90;55.60;;;;;;4889098;29;20044;-91
2023/01/14 11:58:59;;;;;;;0.20;0.20;;;17.00;56.10;;;;;;4883058;29;20123;-92
2023/01/14 12:01:58;;;;;;;0.30;0.30;;;17.10;56.10;;;;;;4891398;29;20027;-96
2023/01/14 12:04:39;;;;;;;0.40;0.40;;;17.40;56.00;;;;;;4895964;29;20033;-89
2023/01/14 12:07:20;;;;;;;0.30;0.30;;;17.70;55.60;;;;;;4885531;29;20028;-87
2023/01/14 12:09:57;;;;;;;0.30;0.30;;;18.00;55.10;;;;;;4884633;29;20379;-87
2023/01/14 12:18:48;;;;;;;0.38;0.38;;;18.00;54.50;;;;;;4844256;29;20601;-84
2023/01/14 12:21:25;;;;;;;0.30;0.30;;;17.70;54.20;;;;;;4828628;29;20034;-84
2023/01/14 12:27:42;;;;;;;0.30;0.30;;;16.80;56.20;;;;;;4843022;29;20036;-85
2023/01/14 12:30:32;;;;;;;0.20;0.20;;;16.80;56.50;;;;;;4829300;29;20082;-85
2023/01/14 12:33:32;;;;;;;0.32;0.32;;;16.90;55.80;;;;;;4828838;29;20073;-85
2023/01/14 12:36:19;;;;;;;0.20;0.20;;;16.80;56.60;;;;;;4853360;29;20080;-91
2023/01/14 12:48:08;;;;;;;0.35;0.35;;;16.50;56.60;;;;;;4846543;29;20482;-93
2023/01/14 12:50:41;;;;;;;0.30;0.30;;;16.70;56.80;;;;;;4850966;29;20034;-87
2023/01/14 12:53:14;;;;;;;0.40;0.40;;;17.00;56.70;;;;;;4878559;29;20069;-91
2023/01/14 12:55:46;;;;;;;0.40;0.40;;;17.30;55.90;;;;;;4887332;29;20044;-86
2023/01/14 12:58:21;;;;;;;0.30;0.30;;;17.40;55.40;;;;;;4897603;29;20020;-96
2023/01/14 13:00:59;;;;;;;0.20;0.20;;;17.40;55.40;;;;;;4899663;29;20101;-96
2023/01/14 13:03:33;;;;;;;0.30;0.30;;;17.20;56.00;;;;;;4900689;29;20159;-94
2023/01/14 13:06:11;;;;;;;0.32;0.32;;;17.20;55.60;;;;;;4906912;29;20040;-92
2023/01/14 13:08:38;;;;;;;0.22;0.22;;;16.70;56.60;;;;;;4899522;29;20028;-96
2023/01/14 13:11:50;;;;;;;0.25;0.25;;;16.90;56.30;;;;;;4893964;29;20499;-86
2023/01/14 13:14:37;;;;;;;0.30;0.30;;;16.90;56.10;;;;;;4853033;29;20110;-91
2023/01/14 13:17:17;;;;;;;0.22;0.22;;;16.60;56.60;;;;;;4832461;29;20114;-90
2023/01/14 13:19:55;;;;;;;0.40;0.40;;;16.50;56.70;;;;;;4846024;29;20168;-95
2023/01/14 13:22:53;;;;;;;0.30;0.30;;;16.30;57.10;;;;;;4830770;29;20064;-84
2023/01/14 13:25:32;;;;;;;0.30;0.30;;;15.90;57.80;;;;;;4829213;29;20098;-86
2023/01/14 13:27:59;;;;;;;0.50;0.50;;;15.70;58.00;;;;;;4821769;29;20033;-94
2023/01/14 13:30:24;;;;;;;0.30;0.30;;;15.50;58.40;;;;;;4850992;29;20082;-85
2023/01/14 13:32:53;;;;;;;0.35;0.35;;;15.90;57.80;;;;;;4496158;29;10000492;-91
2023/01/14 13:35:24;;;;;;;0.30;0.30;;;16.00;57.80;;;;;;4836297;29;20041;-83
2023/01/14 13:45:22;;;;;;;0.20;0.20;;;16.40;57.10;;;;;;4844044;29;20619;-92
2023/01/14 13:48:27;;;;;;;0.35;0.35;;;16.60;56.80;;;;;;4827437;29;20030;-94
2023/01/14 13:50:53;;;;;;;0.20;0.20;;;16.80;56.70;;;;;;4876422;29;20037;-96
2023/01/14 13:53:24;;;;;;;0.38;0.38;;;16.50;56.40;;;;;;4883633;29;20056;-96
2023/01/14 13:55:59;;;;;;;0.20;0.20;;;16.60;57.00;;;;;;4902231;29;20494;-93
2023/01/14 13:58:31;;;;;;;0.30;0.30;;;16.40;56.00;;;;;;4904891;29;20095;-95
2023/01/14 14:01:18;;;;;;;0.40;0.40;;;16.20;56.80;;;;;;4893762;29;20437;-96
2023/01/14 14:03:44;;;;;;;0.25;0.25;;;16.10;57.00;;;;;;4903145;29;20119;-85
2023/01/14 14:06:22;;;;;;;0.30;0.30;;;16.00;57.40;;;;;;4886722;29;20052;-95
2023/01/14 14:09:18;;;;;;;0.40;0.40;;;16.30;57.10;;;;;;4887802;29;20037;-87